createdAt,value
2022-12-25T00:01:11.867Z,10.00
2022-12-25T00:03:48.528Z,8.90
2022-12-25T00:06:17.618Z,9.20
2022-12-25T00:08:45.989Z,10.20
2022-12-25T00:11:20.004Z,9.00
2022-12-25T00:13:49.127Z,8.20
2022-12-25T00:16:23.263Z,8.30
2022-12-25T00:18:51.704Z,9.20
2022-12-25T00:21:21.389Z,7.90
2022-12-25T00:23:55.434Z,8.90
2022-12-25T00:26:24.652Z,8.10
2022-12-25T00:28:57.418Z,7.50
2022-12-25T00:31:26.471Z,7.50
2022-12-25T00:33:54.990Z,8.60
2022-12-25T00:36:23.936Z,9.20
2022-12-25T00:38:51.886Z,9.00
2022-12-25T00:41:43.016Z,10.10
2022-12-25T00:44:14.064Z,8.40
2022-12-25T00:46:42.993Z,7.90
2022-12-25T00:49:12.327Z,8.20
2022-12-25T00:51:40.489Z,9.10
2022-12-25T00:54:08.809Z,8.80
2022-12-25T00:56:36.707Z,10.10
2022-12-25T00:59:04.555Z,10.40
2022-12-25T01:01:33.599Z,10.90
2022-12-25T01:04:01.699Z,8.70
2022-12-25T01:06:30.189Z,9.20
2022-12-25T01:09:17.547Z,9.10
2022-12-25T01:11:45.713Z,9.50
2022-12-25T01:14:14.505Z,8.10
2022-12-25T01:16:42.742Z,8.90
2022-12-25T01:19:11.318Z,9.50
2022-12-25T01:21:39.513Z,10.70
2022-12-25T01:24:07.676Z,11.30
2022-12-25T01:26:35.470Z,11.10
2022-12-25T01:29:03.986Z,10.10
2022-12-25T01:31:31.854Z,8.60
2022-12-25T01:33:59.761Z,9.50
2022-12-25T01:36:27.656Z,7.70
2022-12-25T01:38:55.829Z,9.20
2022-12-25T01:41:25.593Z,9.90
2022-12-25T01:44:28.988Z,11.10
2022-12-25T01:46:56.763Z,12.10
2022-12-25T01:49:26.514Z,10.90
2022-12-25T01:52:05.519Z,10.30
2022-12-25T01:54:41.496Z,9.60
2022-12-25T01:57:17.143Z,13.10
2022-12-25T01:59:46.229Z,11.40
2022-12-25T02:02:14.744Z,11.50
2022-12-25T02:04:52.428Z,10.30
2022-12-25T02:07:25.050Z,9.50
2022-12-25T02:09:53.679Z,8.90
2022-12-25T02:12:26.996Z,10.50
2022-12-25T02:15:05.793Z,9.80
2022-12-25T02:17:42.886Z,10.60
2022-12-25T02:20:34.012Z,12.00
2022-12-25T02:23:58.182Z,12.30
2022-12-25T02:27:02.924Z,9.90
2022-12-25T02:29:50.884Z,10.00
2022-12-25T02:32:39.153Z,8.70
2022-12-25T02:35:25.631Z,9.30
2022-12-25T02:38:14.373Z,8.60
2022-12-25T02:40:57.476Z,8.00
2022-12-25T02:43:53.460Z,11.00
2022-12-25T02:46:43.812Z,12.90
2022-12-25T02:49:42.754Z,15.80
2022-12-25T02:52:35.347Z,10.10
2022-12-25T02:55:33.165Z,10.70
2022-12-25T02:58:27.856Z,9.00
2022-12-25T03:01:24.032Z,8.70
2022-12-25T03:04:16.872Z,9.40
2022-12-25T03:07:12.025Z,11.10
2022-12-25T03:10:06.051Z,12.30
2022-12-25T03:13:17.072Z,12.60
2022-12-25T03:16:05.255Z,11.80
2022-12-25T03:18:34.562Z,11.60
2022-12-25T03:21:21.822Z,11.00
2022-12-25T03:24:16.696Z,12.00
2022-12-25T03:26:58.113Z,11.00
2022-12-25T03:29:52.679Z,11.40
2022-12-25T03:32:41.751Z,9.60
2022-12-25T03:35:33.441Z,10.90
2022-12-25T03:38:48.348Z,11.70
2022-12-25T03:42:01.631Z,5.40
2022-12-25T03:46:02.750Z,7.40
2022-12-25T03:48:55.266Z,2.20
2022-12-25T03:51:50.001Z,8.10
2022-12-25T03:54:45.885Z,6.40
2022-12-25T03:57:33.472Z,8.20
2022-12-25T04:00:20.455Z,4.00
2022-12-25T04:03:07.133Z,3.80
2022-12-25T04:05:53.742Z,3.30
2022-12-25T04:08:40.051Z,3.60
2022-12-25T04:11:26.495Z,2.60
2022-12-25T04:14:12.912Z,7.00
2022-12-25T04:16:59.464Z,6.50
2022-12-25T04:19:53.353Z,4.10
2022-12-25T04:22:40.209Z,5.10
2022-12-25T04:25:27.075Z,4.50
2022-12-25T04:28:19.263Z,2.40
2022-12-25T04:31:06.202Z,5.40
2022-12-25T04:33:52.731Z,3.90
2022-12-25T04:36:21.758Z,3.90
2022-12-25T04:38:49.614Z,5.50
2022-12-25T04:41:17.484Z,5.50
2022-12-25T04:43:45.333Z,5.50
2022-12-25T04:46:13.203Z,3.40
2022-12-25T04:48:41.046Z,5.80
2022-12-25T04:51:22.369Z,6.70
2022-12-25T04:53:51.976Z,6.20
2022-12-25T04:56:21.353Z,5.50
2022-12-25T04:58:49.607Z,5.30
2022-12-25T05:01:17.753Z,5.80
2022-12-25T05:03:45.868Z,5.60
2022-12-25T05:06:13.833Z,6.40
2022-12-25T05:08:41.731Z,6.90
2022-12-25T05:11:13.568Z,8.20
2022-12-25T05:13:41.801Z,7.70
2022-12-25T05:16:15.371Z,7.50
2022-12-25T05:18:44.277Z,4.70
2022-12-25T05:21:12.617Z,5.60
2022-12-25T05:23:48.752Z,5.40
2022-12-25T05:26:20.485Z,6.80
2022-12-25T05:28:49.533Z,7.10
2022-12-25T05:31:19.055Z,7.70
2022-12-25T05:33:51.545Z,7.60
2022-12-25T05:36:19.665Z,7.30
2022-12-25T05:38:47.517Z,7.00
2022-12-25T05:41:15.544Z,6.50
2022-12-25T05:43:43.331Z,7.70
2022-12-25T05:46:13.929Z,6.30
2022-12-25T05:48:42.122Z,8.20
2022-12-25T05:51:14.846Z,8.70
2022-12-25T05:53:43.889Z,6.90
2022-12-25T05:56:11.997Z,7.30
2022-12-25T05:58:41.031Z,7.30
2022-12-25T06:01:17.345Z,6.10
2022-12-25T06:03:45.681Z,7.10
2022-12-25T06:06:14.386Z,6.20
2022-12-25T06:08:42.820Z,6.10
2022-12-25T06:11:13.593Z,8.20
2022-12-25T06:13:42.233Z,6.80
2022-12-25T06:16:12.381Z,8.60
2022-12-25T06:18:46.404Z,9.20
2022-12-25T06:21:16.234Z,8.00
2022-12-25T06:23:45.426Z,6.50
2022-12-25T06:26:19.547Z,5.90
2022-12-25T06:28:48.143Z,6.90
2022-12-25T06:31:20.891Z,5.90
2022-12-25T06:33:50.254Z,6.30
2022-12-25T06:36:29.601Z,8.60
2022-12-25T06:39:01.323Z,8.30
2022-12-25T06:41:30.614Z,8.00
2022-12-25T06:44:01.630Z,9.90
2022-12-25T06:46:32.128Z,7.30
2022-12-25T06:49:00.783Z,6.10
2022-12-25T06:51:32.163Z,5.00
2022-12-25T06:54:04.106Z,8.50
2022-12-25T06:56:33.833Z,11.80
2022-12-25T06:59:09.004Z,11.00
2022-12-25T07:01:51.546Z,9.00
2022-12-25T07:04:33.621Z,9.10
2022-12-25T07:07:08.386Z,8.80
2022-12-25T07:09:42.575Z,8.80
2022-12-25T07:12:21.106Z,5.40
2022-12-25T07:14:50.267Z,7.60
2022-12-25T07:17:20.464Z,9.10
2022-12-25T07:19:49.230Z,7.60
2022-12-25T07:22:17.774Z,10.70
2022-12-25T07:24:45.665Z,10.10
2022-12-25T07:27:13.492Z,8.30
2022-12-25T07:29:41.412Z,6.70
2022-12-25T07:32:09.493Z,8.30
2022-12-25T07:34:37.407Z,7.60
2022-12-25T07:37:05.272Z,6.00
2022-12-25T07:39:34.675Z,8.00
2022-12-25T07:42:02.474Z,8.70
2022-12-25T07:44:30.395Z,11.20
2022-12-25T07:46:58.206Z,9.50
2022-12-25T07:49:26.174Z,11.60
2022-12-25T07:51:54.002Z,10.90
2022-12-25T07:54:21.902Z,10.10
2022-12-25T07:56:53.706Z,10.90
2022-12-25T07:59:21.649Z,11.50
2022-12-25T08:01:50.781Z,11.50
2022-12-25T08:04:19.297Z,13.20
2022-12-25T08:06:47.347Z,13.00
2022-12-25T08:09:15.285Z,13.00
2022-12-25T08:11:47.485Z,12.80
2022-12-25T08:14:15.898Z,12.40
2022-12-25T08:16:44.752Z,15.20
2022-12-25T08:19:14.592Z,13.60
2022-12-25T08:21:42.457Z,14.70
2022-12-25T08:24:10.920Z,14.90
2022-12-25T08:26:38.744Z,14.50
2022-12-25T08:29:11.361Z,14.30
2022-12-25T08:31:46.687Z,15.60
2022-12-25T08:34:15.547Z,15.00
2022-12-25T08:36:43.651Z,13.80
2022-12-25T08:39:11.944Z,14.80
2022-12-25T08:41:40.431Z,16.50
2022-12-25T08:44:08.393Z,16.00
2022-12-25T08:46:36.880Z,13.50
2022-12-25T08:49:04.964Z,15.30
2022-12-25T08:51:32.943Z,15.00
2022-12-25T08:54:01.296Z,11.80
2022-12-25T08:56:29.626Z,15.10
2022-12-25T08:58:57.683Z,17.40
2022-12-25T09:01:25.675Z,17.20
2022-12-25T09:03:53.659Z,17.10
2022-12-25T09:06:21.505Z,14.80
2022-12-25T09:08:50.063Z,15.80
2022-12-25T09:11:20.543Z,14.10
2022-12-25T09:13:49.450Z,14.80
2022-12-25T09:16:21.797Z,14.90
2022-12-25T09:18:50.685Z,14.70
2022-12-25T09:21:19.718Z,16.70
2022-12-25T09:23:47.704Z,16.20
2022-12-25T09:26:18.533Z,17.10
2022-12-25T09:28:51.933Z,16.10
2022-12-25T09:31:22.859Z,15.90
2022-12-25T09:33:52.041Z,14.20
2022-12-25T09:36:23.441Z,16.40
2022-12-25T09:38:52.858Z,15.20
2022-12-25T09:41:34.713Z,17.40
2022-12-25T09:44:10.085Z,18.10
2022-12-25T09:46:49.134Z,16.40
2022-12-25T09:49:38.153Z,17.30
2022-12-25T09:52:31.618Z,13.00
2022-12-25T09:55:20.050Z,15.10
2022-12-25T09:57:55.914Z,15.70
2022-12-25T10:00:34.166Z,20.40
2022-12-25T10:03:23.371Z,14.60
2022-12-25T10:06:33.403Z,16.40
2022-12-25T10:09:26.444Z,15.20
2022-12-25T10:12:30.366Z,18.50
2022-12-25T10:15:26.406Z,18.00
2022-12-25T10:18:53.799Z,18.50
2022-12-25T10:21:23.929Z,18.40
2022-12-25T10:24:33.442Z,17.90
2022-12-25T10:27:08.194Z,17.50
2022-12-25T10:29:36.323Z,18.50
2022-12-25T10:32:04.641Z,19.10
2022-12-25T10:34:33.490Z,18.50
2022-12-25T10:37:02.245Z,18.00
2022-12-25T10:39:30.243Z,18.90
2022-12-25T10:42:31.114Z,19.20
2022-12-25T10:45:08.344Z,18.80
2022-12-25T10:47:42.765Z,17.30
2022-12-25T10:50:24.844Z,18.90
2022-12-25T10:53:04.910Z,15.00
2022-12-25T10:55:33.839Z,17.90
2022-12-25T10:58:02.413Z,17.70
2022-12-25T11:00:33.126Z,17.90
2022-12-25T11:03:01.560Z,17.50
2022-12-25T11:05:35.055Z,16.70
2022-12-25T11:08:04.222Z,15.60
2022-12-25T11:10:38.196Z,18.60
2022-12-25T11:13:17.715Z,17.20
2022-12-25T11:15:49.333Z,18.60
2022-12-25T11:18:29.615Z,18.60
2022-12-25T11:21:02.846Z,20.00
2022-12-25T11:23:33.239Z,19.70
2022-12-25T11:26:07.997Z,19.90
2022-12-25T11:28:46.623Z,18.90
2022-12-25T11:31:20.654Z,19.70
2022-12-25T11:34:05.640Z,19.30
2022-12-25T11:36:51.834Z,20.70
2022-12-25T11:39:28.482Z,21.70
2022-12-25T11:42:14.374Z,20.10
2022-12-25T11:44:49.682Z,18.10
2022-12-25T11:47:45.171Z,22.80
2022-12-25T11:50:21.169Z,18.80
2022-12-25T11:52:58.471Z,20.80
2022-12-25T11:55:41.543Z,16.80
2022-12-25T11:58:36.233Z,19.40
2022-12-25T12:01:34.154Z,20.50
2022-12-25T12:04:08.758Z,20.60
2022-12-25T12:07:02.027Z,19.60
2022-12-25T12:10:06.456Z,20.00
2022-12-25T12:13:10.580Z,17.80
2022-12-25T12:15:47.505Z,19.20
2022-12-25T12:18:23.599Z,18.40
2022-12-25T12:21:18.094Z,13.10
2022-12-25T12:23:47.284Z,19.30
2022-12-25T12:26:25.086Z,16.70
2022-12-25T12:28:59.485Z,17.10
2022-12-25T12:31:43.036Z,16.10
2022-12-25T12:34:34.553Z,17.60
2022-12-25T12:37:08.402Z,17.10
2022-12-25T12:39:40.857Z,18.50
2022-12-25T12:42:21.414Z,19.00
2022-12-25T12:44:50.600Z,16.70
2022-12-25T12:47:47.029Z,9.30
2022-12-25T12:50:33.165Z,15.10
2022-12-25T12:53:22.200Z,17.40
2022-12-25T12:55:52.130Z,20.50
2022-12-25T12:58:40.488Z,17.90
2022-12-25T13:01:26.655Z,18.90
2022-12-25T13:04:34.861Z,15.90
2022-12-25T13:07:24.910Z,15.80
2022-12-25T13:10:13.792Z,15.40
2022-12-25T13:12:41.930Z,16.70
2022-12-25T13:15:21.393Z,18.50
2022-12-25T13:17:50.226Z,11.80
2022-12-25T13:20:33.461Z,14.80
2022-12-25T13:23:01.400Z,16.60
2022-12-25T13:25:29.440Z,15.30
2022-12-25T13:27:59.639Z,18.80
2022-12-25T13:30:27.844Z,13.90
2022-12-25T13:33:00.282Z,14.80
2022-12-25T13:35:28.520Z,14.70
2022-12-25T13:37:56.847Z,16.40
2022-12-25T13:40:28.577Z,14.90
2022-12-25T13:43:01.912Z,15.80
2022-12-25T13:45:31.389Z,15.90
2022-12-25T13:48:15.928Z,17.40
2022-12-25T13:50:48.648Z,16.00
2022-12-25T13:53:18.192Z,18.30
2022-12-25T13:55:56.030Z,14.50
2022-12-25T13:58:31.635Z,14.60
2022-12-25T14:01:02.817Z,19.20
2022-12-25T14:03:46.217Z,15.70
2022-12-25T14:06:32.597Z,20.00
2022-12-25T14:09:00.969Z,18.10
2022-12-25T14:11:32.373Z,18.90
2022-12-25T14:14:12.350Z,17.60
2022-12-25T14:16:43.814Z,19.70
2022-12-25T14:19:29.884Z,16.20
2022-12-25T14:22:22.727Z,16.50
2022-12-25T14:24:51.255Z,18.10
2022-12-25T14:27:32.680Z,18.50
2022-12-25T14:30:01.689Z,16.50
2022-12-25T14:32:38.524Z,16.00
2022-12-25T14:35:07.175Z,15.10
2022-12-25T14:37:37.373Z,13.60
2022-12-25T14:40:26.315Z,14.20
2022-12-25T14:43:17.234Z,16.70
2022-12-25T14:45:59.981Z,13.50
2022-12-25T14:48:31.979Z,12.60
2022-12-25T14:51:04.184Z,12.70
2022-12-25T14:53:49.272Z,17.70
2022-12-25T14:56:24.603Z,15.40
2022-12-25T14:58:57.418Z,13.80
2022-12-25T15:01:36.327Z,15.70
2022-12-25T15:04:10.227Z,13.90
2022-12-25T15:07:00.040Z,13.00
2022-12-25T15:09:30.215Z,16.90
2022-12-25T15:11:58.211Z,15.20
2022-12-25T15:14:27.599Z,14.70
2022-12-25T15:17:00.708Z,16.00
2022-12-25T15:19:38.149Z,16.60
2022-12-25T15:22:07.149Z,16.40
2022-12-25T15:24:35.664Z,16.40
2022-12-25T15:27:05.490Z,20.50
2022-12-25T15:30:08.030Z,20.00
2022-12-25T15:32:24.328Z,20.40
2022-12-25T15:34:54.292Z,14.80
2022-12-25T15:37:22.144Z,17.90
2022-12-25T15:39:50.069Z,19.70
2022-12-25T15:42:23.117Z,15.20
2022-12-25T15:44:52.018Z,19.10
2022-12-25T15:47:20.374Z,20.20
2022-12-25T15:49:49.211Z,19.90
2022-12-25T15:52:18.360Z,21.30
2022-12-25T15:54:46.379Z,20.50
2022-12-25T15:57:22.476Z,21.80
2022-12-25T15:59:50.383Z,20.10
2022-12-25T16:02:21.181Z,21.30
2022-12-25T16:04:51.207Z,19.60
2022-12-25T16:07:23.637Z,21.20
2022-12-25T16:09:52.583Z,20.00
2022-12-25T16:12:20.772Z,21.40
2022-12-25T16:14:48.797Z,21.60
2022-12-25T16:17:16.850Z,20.40
2022-12-25T16:19:44.983Z,20.20
2022-12-25T16:22:18.646Z,22.30
2022-12-25T16:24:46.709Z,21.20
2022-12-25T16:27:14.916Z,21.20
2022-12-25T16:29:43.308Z,18.40
2022-12-25T16:32:13.492Z,18.50
2022-12-25T16:34:41.570Z,18.90
2022-12-25T16:37:09.502Z,18.60
2022-12-25T16:39:38.409Z,18.80
2022-12-25T16:42:06.489Z,17.40
2022-12-25T16:44:37.637Z,15.10
2022-12-25T16:47:05.816Z,16.70
2022-12-25T16:49:33.897Z,19.20
2022-12-25T16:52:02.760Z,17.90
2022-12-25T16:54:30.657Z,18.90
2022-12-25T16:56:58.546Z,18.10
2022-12-25T16:59:29.585Z,18.30
2022-12-25T17:01:57.627Z,19.10
2022-12-25T17:04:27.626Z,19.50
2022-12-25T17:06:56.371Z,20.30
2022-12-25T17:09:24.965Z,19.20
2022-12-25T17:11:53.024Z,20.40
2022-12-25T17:14:21.684Z,20.30
2022-12-25T17:16:55.023Z,21.50
2022-12-25T17:19:26.539Z,20.80
2022-12-25T17:21:57.442Z,20.30
2022-12-25T17:24:28.163Z,22.50
2022-12-25T17:26:56.202Z,22.70
2022-12-25T17:29:30.726Z,20.10
2022-12-25T17:31:58.778Z,26.00
2022-12-25T17:34:27.387Z,24.40
2022-12-25T17:36:59.213Z,22.90
2022-12-25T17:39:27.452Z,22.60
2022-12-25T17:41:55.420Z,23.00
2022-12-25T17:44:23.501Z,22.70
2022-12-25T17:46:51.762Z,20.80
2022-12-25T17:49:21.980Z,18.20
2022-12-25T17:51:50.452Z,19.50
2022-12-25T17:54:18.571Z,17.90
2022-12-25T17:56:49.629Z,22.00
2022-12-25T17:59:19.039Z,22.30
2022-12-25T18:01:48.552Z,22.10
2022-12-25T18:04:17.168Z,18.50
2022-12-25T18:06:45.835Z,17.00
2022-12-25T18:09:17.886Z,18.30
2022-12-25T18:11:46.159Z,17.70
2022-12-25T18:14:16.837Z,17.40
2022-12-25T18:16:46.165Z,19.70
2022-12-25T18:19:15.802Z,18.80
2022-12-25T18:21:44.672Z,17.60
2022-12-25T18:24:13.408Z,16.80
2022-12-25T18:26:41.375Z,19.20
2022-12-25T18:29:09.655Z,20.00
2022-12-25T18:31:37.735Z,18.30
2022-12-25T18:34:05.642Z,16.70
2022-12-25T18:36:34.148Z,17.30
2022-12-25T18:39:05.959Z,16.60
2022-12-25T18:41:54.497Z,15.70
2022-12-25T18:44:22.443Z,18.10
2022-12-25T18:46:50.383Z,19.50
2022-12-25T18:49:18.232Z,19.80
2022-12-25T18:51:46.085Z,21.10
2022-12-25T18:54:13.914Z,22.40
2022-12-25T18:56:42.026Z,20.50
2022-12-25T18:59:09.999Z,19.40
2022-12-25T19:01:39.974Z,20.50
2022-12-25T19:04:12.980Z,18.60
2022-12-25T19:06:43.780Z,19.10
2022-12-25T19:09:11.977Z,22.00
2022-12-25T19:11:46.504Z,19.00
2022-12-25T19:14:15.928Z,19.20
2022-12-25T19:16:44.903Z,21.80
2022-12-25T19:19:14.491Z,19.10
2022-12-25T19:21:42.297Z,22.80
2022-12-25T19:24:10.518Z,22.20
2022-12-25T19:26:38.815Z,18.20
2022-12-25T19:29:07.112Z,19.10
2022-12-25T19:31:35.303Z,16.60
2022-12-25T19:34:04.273Z,16.30
2022-12-25T19:36:32.767Z,18.60
2022-12-25T19:39:01.094Z,19.20
2022-12-25T19:41:29.177Z,19.70
2022-12-25T19:43:57.461Z,18.70
2022-12-25T19:46:36.614Z,19.50
2022-12-25T19:49:05.308Z,16.60
2022-12-25T19:51:44.672Z,19.70
2022-12-25T19:54:20.748Z,16.80
2022-12-25T19:56:49.397Z,16.00
2022-12-25T19:59:17.385Z,19.40
2022-12-25T20:01:45.645Z,16.40
2022-12-25T20:04:15.346Z,14.90
2022-12-25T20:06:44.437Z,10.50
2022-12-25T20:09:21.485Z,15.40
2022-12-25T20:11:49.979Z,17.10
2022-12-25T20:14:18.394Z,16.00
2022-12-25T20:16:47.079Z,15.70
2022-12-25T20:19:15.770Z,14.70
2022-12-25T20:21:43.869Z,15.00
2022-12-25T20:24:12.128Z,9.50
2022-12-25T20:26:40.152Z,15.80
2022-12-25T20:29:08.274Z,15.10
2022-12-25T20:31:36.532Z,14.60
2022-12-25T20:34:08.926Z,13.50
2022-12-25T20:36:38.256Z,10.50
2022-12-25T20:39:10.247Z,14.40
2022-12-25T20:41:39.891Z,12.90
2022-12-25T20:44:10.503Z,16.60
2022-12-25T20:46:38.831Z,15.60
2022-12-25T20:49:06.928Z,16.30
2022-12-25T20:51:35.130Z,14.70
2022-12-25T20:54:08.506Z,15.20
2022-12-25T20:56:36.957Z,12.80
2022-12-25T20:59:04.779Z,16.90
2022-12-25T21:01:32.723Z,12.60
2022-12-25T21:04:00.722Z,15.40
2022-12-25T21:06:28.607Z,14.50
2022-12-25T21:08:56.534Z,13.30
2022-12-25T21:11:24.481Z,17.10
2022-12-25T21:13:52.645Z,16.60
2022-12-25T21:16:22.981Z,17.30
2022-12-25T21:18:53.679Z,14.60
2022-12-25T21:21:22.851Z,18.20
2022-12-25T21:23:51.187Z,13.80
2022-12-25T21:26:23.441Z,15.40
2022-12-25T21:28:55.786Z,7.20
2022-12-25T21:31:25.711Z,14.70
2022-12-25T21:33:55.919Z,17.10
2022-12-25T21:36:31.022Z,17.30
2022-12-25T21:39:03.281Z,17.40
2022-12-25T21:41:34.308Z,15.10
2022-12-25T21:44:02.413Z,8.40
2022-12-25T21:46:31.009Z,16.10
2022-12-25T21:48:59.973Z,16.20
2022-12-25T21:51:50.170Z,17.00
2022-12-25T21:54:21.108Z,16.20
2022-12-25T21:56:50.431Z,11.40
2022-12-25T21:59:22.036Z,16.40
2022-12-25T22:01:52.056Z,17.60
2022-12-25T22:04:23.457Z,19.10
2022-12-25T22:07:10.786Z,15.70
2022-12-25T22:09:38.989Z,18.50
2022-12-25T22:12:32.110Z,17.30
2022-12-25T22:15:09.928Z,11.70
2022-12-25T22:18:01.785Z,15.10
2022-12-25T22:20:36.089Z,13.90
2022-12-25T22:23:05.258Z,16.90
2022-12-25T22:25:33.262Z,16.60
2022-12-25T22:28:01.216Z,12.90
2022-12-25T22:30:29.597Z,17.40
2022-12-25T22:32:58.402Z,15.10
2022-12-25T22:35:26.542Z,16.30
2022-12-25T22:37:54.885Z,16.00
2022-12-25T22:40:22.850Z,16.50
2022-12-25T22:42:55.542Z,16.00
2022-12-25T22:45:24.344Z,18.10
2022-12-25T22:47:52.273Z,12.80
2022-12-25T22:50:20.388Z,16.50
2022-12-25T22:52:48.243Z,16.80
2022-12-25T22:55:18.612Z,9.10
2022-12-25T22:57:46.864Z,16.20
2022-12-25T23:00:14.869Z,13.60
2022-12-25T23:02:42.921Z,16.10
2022-12-25T23:05:11.203Z,16.50
2022-12-25T23:07:39.084Z,15.20
2022-12-25T23:10:08.258Z,17.20
2022-12-25T23:12:54.922Z,12.90
2022-12-25T23:15:23.015Z,14.50
2022-12-25T23:18:09.880Z,15.60
2022-12-25T23:20:56.788Z,16.70
2022-12-25T23:23:43.342Z,14.90
2022-12-25T23:26:12.948Z,11.90
2022-12-25T23:29:01.856Z,15.80
2022-12-25T23:31:35.759Z,16.80
2022-12-25T23:34:06.015Z,15.00
2022-12-25T23:36:34.773Z,13.80
2022-12-25T23:39:09.651Z,15.90
2022-12-25T23:41:40.546Z,10.80
2022-12-25T23:44:11.252Z,15.50
2022-12-25T23:46:40.399Z,15.70
2022-12-25T23:49:10.455Z,16.80
2022-12-25T23:51:45.278Z,13.00
2022-12-25T23:54:18.267Z,13.90
2022-12-25T23:56:46.578Z,15.80
2022-12-25T23:59:15.257Z,14.80
